Time;durP1;ratioP1;P1;durP2;ratioP2;P2;SDS_P1;SDS_P2;PMS_P1;PMS_P2;Temp;Humidity;BMP_temperature;BMP_pressure;BME280_temperature;BME280_humidity;BME280_pressure;Samples;Min_cycle;Max_cycle;Signal;HPM_P1;HPM_P2
2022/09/10 00:00:19;;;;;;;1.23;0.70;;;26.80;48.00;;;;;;5052381;28;20761;-65
2022/09/10 00:02:45;;;;;;;1.70;0.90;;;26.80;48.00;;;;;;5052625;28;20029;-66
2022/09/10 00:05:11;;;;;;;1.23;0.80;;;26.80;48.00;;;;;;5052810;28;20025;-65
2022/09/10 00:07:38;;;;;;;1.52;0.70;;;26.70;48.00;;;;;;5032664;28;20128;-65
2022/09/10 00:10:04;;;;;;;1.13;0.70;;;26.70;48.00;;;;;;5052758;28;20025;-66
2022/09/10 00:12:30;;;;;;;1.27;0.80;;;26.80;48.10;;;;;;5052595;28;20481;-65
2022/09/10 00:14:56;;;;;;;1.55;0.80;;;26.70;48.00;;;;;;5052438;28;20497;-65
2022/09/10 00:17:23;;;;;;;1.45;0.80;;;26.70;48.10;;;;;;5052515;28;20388;-65
2022/09/10 00:19:48;;;;;;;1.42;0.80;;;26.70;48.10;;;;;;5052530;28;20028;-65
2022/09/10 00:22:14;;;;;;;1.20;0.70;;;26.70;48.10;;;;;;5052392;28;20021;-67
2022/09/10 00:24:39;;;;;;;1.42;0.80;;;26.60;48.10;;;;;;5052256;28;20166;-66
2022/09/10 00:27:05;;;;;;;1.30;0.80;;;26.70;48.20;;;;;;5052464;28;20434;-66
2022/09/10 00:29:31;;;;;;;2.03;0.98;;;26.60;48.10;;;;;;5052345;28;20021;-65
2022/09/10 00:31:56;;;;;;;1.58;0.70;;;26.60;48.20;;;;;;5051706;28;20087;-66
2022/09/10 00:34:22;;;;;;;2.60;0.90;;;26.60;48.20;;;;;;5051527;28;20025;-66
2022/09/10 00:36:47;;;;;;;1.50;0.70;;;26.60;48.20;;;;;;5052157;28;20090;-66
2022/09/10 00:39:16;;;;;;;1.35;0.70;;;26.60;48.30;;;;;;5052057;28;20503;-66
2022/09/10 00:41:43;;;;;;;1.13;0.77;;;26.60;48.30;;;;;;5052154;28;20480;-66
2022/09/10 00:44:38;;;;;;;1.25;0.70;;;26.50;48.20;;;;;;5051474;28;20033;-66
2022/09/10 00:47:18;;;;;;;0.45;0.45;;;26.50;48.30;;;;;;5050633;28;20017;-67
2022/09/10 00:49:53;;;;;;;1.90;0.80;;;26.50;48.30;;;;;;5051916;28;20021;-66
2022/09/10 00:52:19;;;;;;;2.13;0.75;;;26.50;48.30;;;;;;5051738;28;20021;-67
2022/09/10 00:54:46;;;;;;;1.90;0.85;;;26.50;48.40;;;;;;5051895;28;20032;-67
2022/09/10 00:57:19;;;;;;;0.98;0.70;;;26.40;48.30;;;;;;5051796;28;20058;-66
2022/09/10 00:59:49;;;;;;;1.60;0.70;;;26.50;48.40;;;;;;5051740;28;20082;-66
2022/09/10 01:02:14;;;;;;;1.15;0.80;;;26.40;48.40;;;;;;5051249;28;20110;-66
2022/09/10 01:04:41;;;;;;;1.73;0.80;;;26.40;48.40;;;;;;5033608;28;20074;-65
2022/09/10 01:07:09;;;;;;;1.65;0.70;;;26.40;48.40;;;;;;5051593;28;20393;-67
2022/09/10 01:09:36;;;;;;;1.20;0.70;;;26.40;48.40;;;;;;5051546;28;20648;-66
2022/09/10 01:12:36;;;;;;;1.13;0.70;;;26.30;48.90;;;;;;5051503;28;20028;-65
2022/09/10 01:15:06;;;;;;;0.93;0.60;;;26.30;48.40;;;;;;5051182;28;20049;-65
2022/09/10 01:17:56;;;;;;;1.45;0.65;;;26.30;48.50;;;;;;5051250;28;20031;-66
2022/09/10 01:20:30;;;;;;;0.90;0.52;;;26.30;48.50;;;;;;5050442;28;20103;-66
2022/09/10 01:23:14;;;;;;;1.25;0.70;;;26.30;48.50;;;;;;5049244;28;20523;-65
2022/09/10 01:26:01;;;;;;;0.90;0.60;;;26.30;48.50;;;;;;5051162;28;20045;-65
2022/09/10 01:28:44;;;;;;;1.23;0.80;;;26.30;48.60;;;;;;5051053;28;20250;-65
2022/09/10 01:31:30;;;;;;;1.52;0.70;;;26.30;48.60;;;;;;5050527;28;20040;-65
2022/09/10 01:34:11;;;;;;;1.08;0.70;;;26.20;48.60;;;;;;5050430;28;20025;-65
2022/09/10 01:36:39;;;;;;;1.48;0.80;;;26.20;48.60;;;;;;5050220;28;20040;-65
2022/09/10 01:39:05;;;;;;;2.15;0.70;;;26.20;48.60;;;;;;5050288;28;20024;-65
2022/09/10 01:41:31;;;;;;;0.60;0.60;;;26.20;48.70;;;;;;5050901;28;20496;-67
2022/09/10 01:43:57;;;;;;;1.25;0.70;;;26.20;48.70;;;;;;5050664;28;20033;-65
2022/09/10 01:46:49;;;;;;;1.08;0.63;;;26.20;48.70;;;;;;5050851;28;20029;-65
2022/09/10 01:49:33;;;;;;;0.93;0.70;;;26.20;48.70;;;;;;5050107;28;20056;-65
2022/09/10 01:52:18;;;;;;;1.08;0.70;;;26.20;48.80;;;;;;5050548;28;20480;-65
2022/09/10 01:54:49;;;;;;;0.70;0.57;;;26.10;48.70;;;;;;5050710;28;20078;-65
2022/09/10 01:57:29;;;;;;;0.82;0.60;;;26.10;48.80;;;;;;5050496;28;20103;-65
2022/09/10 02:00:09;;;;;;;0.60;0.57;;;26.10;48.80;;;;;;5049655;28;20025;-66
2022/09/10 02:02:37;;;;;;;1.23;0.70;;;26.10;48.90;;;;;;5048222;28;20139;-65
2022/09/10 02:05:05;;;;;;;0.50;0.50;;;26.10;48.90;;;;;;5050724;28;20369;-64
2022/09/10 02:07:34;;;;;;;1.23;0.70;;;26.10;48.90;;;;;;5050290;28;20421;-66
2022/09/10 02:10:01;;;;;;;;;;;26.10;49.00;;;;;;5051080;28;20017;-66
2022/09/10 02:12:27;;;;;;;0.50;0.40;;;26.00;48.90;;;;;;5050607;28;20672;-65
2022/09/10 02:14:55;;;;;;;1.35;0.60;;;26.00;48.90;;;;;;5050079;28;20037;-66
2022/09/10 02:17:26;;;;;;;1.05;0.70;;;26.00;49.00;;;;;;5050280;28;20032;-66
2022/09/10 02:19:53;;;;;;;0.57;0.50;;;26.00;49.00;;;;;;5050577;28;20116;-67
2022/09/10 02:22:22;;;;;;;1.05;0.63;;;26.00;49.00;;;;;;5050465;28;20139;-66
2022/09/10 02:24:48;;;;;;;0.80;0.63;;;25.90;49.00;;;;;;5050549;28;20085;-66
2022/09/10 02:27:15;;;;;;;1.05;0.60;;;25.90;49.00;;;;;;5050553;28;20021;-66
2022/09/10 02:29:40;;;;;;;1.65;0.75;;;25.90;49.10;;;;;;5051495;28;20365;-66
2022/09/10 02:32:07;;;;;;;0.77;0.55;;;25.90;49.10;;;;;;5053977;28;20033;-65
2022/09/10 02:34:33;;;;;;;1.10;0.60;;;25.90;49.20;;;;;;5053799;28;20465;-65
2022/09/10 02:36:59;;;;;;;0.60;0.60;;;25.90;49.10;;;;;;5054240;28;20040;-67
2022/09/10 02:39:24;;;;;;;1.00;0.70;;;25.90;49.10;;;;;;5054329;28;20037;-66
2022/09/10 02:41:50;;;;;;;0.88;0.57;;;25.90;49.10;;;;;;5054299;28;20021;-66
2022/09/10 02:44:16;;;;;;;1.02;0.50;;;25.90;49.10;;;;;;5054285;28;20134;-66
2022/09/10 02:46:43;;;;;;;1.00;0.52;;;25.80;49.10;;;;;;5054233;28;20017;-66
2022/09/10 02:49:08;;;;;;;1.20;0.60;;;25.90;49.20;;;;;;5053794;28;20024;-65
2022/09/10 02:51:35;;;;;;;0.75;0.52;;;25.80;49.20;;;;;;5054210;28;20017;-65
2022/09/10 02:54:01;;;;;;;0.68;0.60;;;25.80;49.20;;;;;;5052389;28;20114;-66
2022/09/10 02:56:27;;;;;;;0.65;0.60;;;25.80;49.20;;;;;;5036190;28;20125;-65
2022/09/10 02:58:53;;;;;;;1.10;0.50;;;25.80;49.20;;;;;;5054072;28;20184;-65
2022/09/10 03:01:20;;;;;;;0.88;0.50;;;25.80;49.30;;;;;;5053065;28;20155;-65
2022/09/10 03:03:50;;;;;;;0.77;0.60;;;25.80;49.30;;;;;;5053753;28;20037;-65
2022/09/10 03:06:16;;;;;;;0.63;0.50;;;25.70;49.20;;;;;;5053173;28;20048;-65
2022/09/10 03:08:42;;;;;;;1.05;0.57;;;25.70;49.30;;;;;;5053818;28;20067;-65
2022/09/10 03:11:07;;;;;;;0.88;0.57;;;25.70;49.30;;;;;;5053572;28;20474;-66
2022/09/10 03:13:33;;;;;;;1.13;0.50;;;25.70;49.30;;;;;;5052520;28;20041;-66
2022/09/10 03:16:02;;;;;;;0.52;0.50;;;25.70;49.30;;;;;;5053490;28;20049;-66
2022/09/10 03:18:28;;;;;;;0.65;0.52;;;25.70;49.30;;;;;;5053532;28;20056;-66
2022/09/10 03:20:54;;;;;;;1.17;0.60;;;25.70;49.90;;;;;;5053486;28;20064;-65
2022/09/10 03:23:19;;;;;;;1.17;0.52;;;25.70;49.40;;;;;;5052618;28;20044;-65
2022/09/10 03:25:45;;;;;;;0.63;0.52;;;25.70;49.40;;;;;;5053341;28;20025;-65
2022/09/10 03:28:12;;;;;;;0.77;0.50;;;25.70;49.40;;;;;;5053309;28;20083;-65
2022/09/10 03:30:39;;;;;;;0.50;0.50;;;25.70;49.50;;;;;;5048200;28;20493;-66
2022/09/10 03:33:06;;;;;;;0.68;0.50;;;25.70;49.50;;;;;;5033125;28;20080;-65
2022/09/10 03:35:32;;;;;;;0.70;0.50;;;25.60;49.40;;;;;;5033316;28;20022;-65
2022/09/10 03:37:57;;;;;;;0.70;0.50;;;25.60;49.40;;;;;;5033178;28;20029;-65
2022/09/10 03:40:23;;;;;;;0.85;0.60;;;25.60;49.40;;;;;;5032968;28;20025;-65
2022/09/10 03:42:48;;;;;;;0.60;0.50;;;25.70;49.50;;;;;;5032112;28;20025;-67
2022/09/10 03:45:14;;;;;;;0.90;0.52;;;25.60;49.50;;;;;;5033033;28;20180;-65
2022/09/10 03:47:40;;;;;;;0.70;0.52;;;25.60;49.50;;;;;;5033072;28;20022;-66
2022/09/10 03:50:06;;;;;;;0.82;0.60;;;25.60;49.50;;;;;;5032958;28;20032;-66
2022/09/10 03:52:32;;;;;;;0.57;0.50;;;25.60;49.50;;;;;;5032857;28;20026;-66
2022/09/10 03:54:57;;;;;;;0.60;0.50;;;25.60;49.50;;;;;;5007086;28;20022;-66
2022/09/10 03:57:24;;;;;;;0.50;0.50;;;25.60;49.60;;;;;;5032966;28;20354;-66
2022/09/10 03:59:50;;;;;;;0.73;0.50;;;25.60;49.60;;;;;;5032863;28;20505;-67
2022/09/10 04:02:17;;;;;;;0.50;0.50;;;25.60;49.60;;;;;;5049981;28;20058;-66
2022/09/10 04:04:42;;;;;;;0.45;0.45;;;25.60;49.60;;;;;;5052492;28;20166;-66
2022/09/10 04:07:09;;;;;;;0.75;0.50;;;25.50;49.60;;;;;;5052573;28;20104;-67
2022/09/10 04:09:35;;;;;;;0.57;0.47;;;25.50;49.60;;;;;;5051064;28;20021;-67
2022/09/10 04:12:01;;;;;;;0.60;0.50;;;25.50;49.60;;;;;;5052391;28;20151;-67
2022/09/10 04:14:27;;;;;;;0.40;0.40;;;25.50;49.60;;;;;;5052389;28;20049;-67
2022/09/10 04:16:53;;;;;;;0.68;0.60;;;25.50;49.60;;;;;;5052537;28;20029;-65
2022/09/10 04:19:18;;;;;;;0.50;0.50;;;25.50;49.60;;;;;;5042940;28;20508;-66
2022/09/10 04:21:44;;;;;;;0.80;0.65;;;25.50;49.60;;;;;;5052334;28;20393;-65
2022/09/10 04:24:13;;;;;;;1.00;0.60;;;25.50;49.70;;;;;;5052492;28;20083;-65
2022/09/10 04:26:38;;;;;;;0.60;0.60;;;25.50;49.70;;;;;;5050941;28;20472;-65
2022/09/10 04:29:04;;;;;;;0.40;0.40;;;25.40;49.60;;;;;;5052175;28;20025;-65
2022/09/10 04:31:30;;;;;;;0.50;0.50;;;25.50;49.70;;;;;;5051659;28;20029;-65
2022/09/10 04:33:58;;;;;;;0.43;0.40;;;25.50;49.70;;;;;;5052068;28;20033;-65
2022/09/10 04:36:24;;;;;;;0.50;0.50;;;25.40;49.70;;;;;;5051834;28;20109;-65
2022/09/10 04:38:50;;;;;;;0.50;0.47;;;25.50;49.70;;;;;;5051656;28;20111;-65
2022/09/10 04:41:17;;;;;;;0.45;0.45;;;25.40;49.70;;;;;;5051966;28;20033;-65
2022/09/10 04:43:42;;;;;;;1.05;0.50;;;25.40;49.70;;;;;;5051883;28;20438;-65
2022/09/10 04:46:08;;;;;;;0.47;0.32;;;25.40;49.70;;;;;;5049895;28;20033;-65
2022/09/10 04:48:33;;;;;;;0.45;0.40;;;25.40;49.70;;;;;;5051714;28;20028;-65
2022/09/10 04:50:59;;;;;;;0.65;0.47;;;25.40;49.70;;;;;;5051760;28;20054;-65
2022/09/10 04:53:26;;;;;;;0.63;0.55;;;25.40;49.70;;;;;;5051302;28;20469;-65
2022/09/10 04:55:54;;;;;;;0.40;0.40;;;25.40;49.70;;;;;;5051554;28;20078;-65
2022/09/10 04:58:20;;;;;;;0.60;0.45;;;25.40;49.80;;;;;;5051793;28;20017;-66
2022/09/10 05:00:46;;;;;;;0.80;0.45;;;25.40;49.80;;;;;;5046008;28;20033;-65
2022/09/10 05:03:13;;;;;;;0.38;0.38;;;25.40;49.80;;;;;;5031588;28;20381;-64
2022/09/10 05:05:41;;;;;;;0.50;0.50;;;25.40;49.80;;;;;;5031706;28;20029;-65
2022/09/10 05:08:07;;;;;;;0.52;0.50;;;25.40;49.80;;;;;;5029472;28;20531;-65
2022/09/10 05:10:34;;;;;;;0.50;0.50;;;25.40;49.80;;;;;;5013148;28;20029;-65
2022/09/10 05:13:00;;;;;;;0.47;0.47;;;25.40;49.80;;;;;;5031364;28;20098;-65
2022/09/10 05:15:27;;;;;;;0.52;0.50;;;25.40;49.80;;;;;;5030623;28;20049;-65
2022/09/10 05:17:52;;;;;;;0.50;0.50;;;25.40;49.80;;;;;;5031322;28;20029;-65
2022/09/10 05:20:18;;;;;;;0.40;0.40;;;25.30;49.70;;;;;;5031271;28;20083;-65
2022/09/10 05:22:44;;;;;;;0.40;0.40;;;25.30;49.70;;;;;;5031233;28;20022;-65
2022/09/10 05:25:09;;;;;;;0.70;0.60;;;25.30;49.80;;;;;;5031280;28;20112;-65
2022/09/10 05:27:35;;;;;;;0.70;0.50;;;25.30;49.80;;;;;;5031188;28;20124;-65
2022/09/10 05:30:01;;;;;;;0.60;0.45;;;25.30;49.80;;;;;;5031220;28;20029;-66
2022/09/10 05:32:27;;;;;;;0.45;0.45;;;25.30;49.70;;;;;;5030943;28;20029;-64
2022/09/10 05:34:53;;;;;;;0.32;0.30;;;25.30;49.80;;;;;;5031065;28;20428;-65
2022/09/10 05:37:19;;;;;;;0.50;0.50;;;25.30;49.80;;;;;;5030972;28;20038;-65
2022/09/10 05:39:47;;;;;;;0.68;0.50;;;25.30;49.80;;;;;;5031031;28;20468;-65
2022/09/10 05:42:13;;;;;;;0.50;0.50;;;25.30;49.80;;;;;;5030969;28;20025;-65
2022/09/10 05:44:40;;;;;;;0.50;0.50;;;25.30;49.80;;;;;;5030877;28;20030;-65
2022/09/10 05:47:06;;;;;;;0.40;0.40;;;25.30;49.80;;;;;;5030439;28;20462;-65
2022/09/10 05:49:32;;;;;;;1.27;0.40;;;25.30;49.90;;;;;;5030761;28;20083;-65
2022/09/10 05:51:57;;;;;;;0.50;0.50;;;25.30;49.90;;;;;;5030963;28;20030;-66
2022/09/10 05:54:23;;;;;;;0.50;0.50;;;25.20;49.80;;;;;;5030754;28;20037;-66
2022/09/10 05:56:49;;;;;;;0.60;0.60;;;25.30;49.90;;;;;;5030758;28;20391;-65
2022/09/10 05:59:14;;;;;;;0.40;0.40;;;25.20;49.90;;;;;;5030822;28;20084;-66
2022/09/10 06:01:40;;;;;;;0.50;0.40;;;25.20;49.90;;;;;;5029061;28;20026;-67
2022/09/10 06:04:05;;;;;;;0.73;0.50;;;25.20;49.90;;;;;;5030698;28;20037;-65
2022/09/10 06:06:31;;;;;;;0.52;0.50;;;25.20;49.90;;;;;;5034352;28;20110;-65
2022/09/10 06:08:57;;;;;;;0.65;0.50;;;25.20;49.90;;;;;;5034954;28;20029;-65
2022/09/10 06:11:23;;;;;;;0.40;0.40;;;25.20;49.90;;;;;;5034749;28;20408;-65
2022/09/10 06:13:49;;;;;;;0.50;0.40;;;25.20;49.90;;;;;;5034725;28;20041;-65
2022/09/10 06:16:15;;;;;;;0.45;0.40;;;25.20;49.90;;;;;;5034724;28;20029;-65
2022/09/10 06:18:42;;;;;;;0.40;0.40;;;25.20;50.40;;;;;;5016896;28;20053;-65
2022/09/10 06:21:14;;;;;;;0.63;0.47;;;25.20;50.00;;;;;;5034678;28;20057;-65
2022/09/10 06:23:40;;;;;;;0.60;0.50;;;25.20;50.00;;;;;;5034379;28;20033;-65
2022/09/10 06:26:09;;;;;;;0.40;0.30;;;25.20;50.00;;;;;;5034540;28;20030;-65
2022/09/10 06:28:35;;;;;;;0.52;0.40;;;25.20;50.40;;;;;;5033415;28;20025;-65
2022/09/10 06:31:04;;;;;;;0.30;0.30;;;25.10;49.90;;;;;;5033951;28;20026;-65
2022/09/10 06:33:30;;;;;;;0.70;0.47;;;25.10;50.00;;;;;;5034380;28;20053;-65
2022/09/10 06:36:00;;;;;;;0.40;0.40;;;25.10;49.90;;;;;;5034140;28;20040;-65
2022/09/10 06:38:32;;;;;;;0.60;0.50;;;25.10;49.90;;;;;;5034195;28;20033;-65
2022/09/10 06:41:01;;;;;;;0.40;0.40;;;25.10;50.00;;;;;;5015859;28;20671;-65
2022/09/10 06:43:31;;;;;;;0.40;0.40;;;25.10;50.00;;;;;;5034019;28;20048;-65
2022/09/10 06:45:57;;;;;;;0.50;0.50;;;25.10;50.00;;;;;;5033475;28;20044;-65
2022/09/10 06:48:27;;;;;;;0.40;0.40;;;25.10;50.00;;;;;;5034011;28;20452;-65
2022/09/10 06:50:53;;;;;;;0.70;0.50;;;25.10;50.00;;;;;;5033992;28;20499;-65
2022/09/10 06:53:20;;;;;;;1.02;0.47;;;25.10;50.00;;;;;;5033107;28;20025;-65
2022/09/10 06:55:49;;;;;;;0.40;0.40;;;25.10;50.00;;;;;;5033790;28;20029;-65
2022/09/10 06:58:15;;;;;;;0.40;0.40;;;25.10;50.00;;;;;;5031458;28;20111;-64
2022/09/10 07:00:42;;;;;;;0.45;0.30;;;25.10;50.00;;;;;;5033296;28;20392;-65
2022/09/10 07:03:08;;;;;;;0.32;0.32;;;25.10;50.10;;;;;;5033542;28;20118;-64
2022/09/10 07:05:34;;;;;;;0.63;0.50;;;25.10;50.10;;;;;;5033593;28;20021;-65
2022/09/10 07:08:00;;;;;;;0.40;0.40;;;25.10;50.00;;;;;;5033621;28;20071;-65
2022/09/10 07:10:27;;;;;;;0.30;0.30;;;25.10;50.10;;;;;;5033527;28;20025;-64
2022/09/10 07:12:53;;;;;;;0.45;0.40;;;25.10;50.10;;;;;;5033583;28;20025;-64
2022/09/10 07:15:18;;;;;;;0.43;0.40;;;25.10;50.10;;;;;;5033028;28;20488;-65
2022/09/10 07:17:44;;;;;;;0.40;0.40;;;25.10;50.10;;;;;;5032917;28;20033;-65
2022/09/10 07:20:10;;;;;;;0.60;0.38;;;25.10;50.10;;;;;;5033459;28;20032;-64
2022/09/10 07:22:36;;;;;;;0.40;0.40;;;25.10;50.10;;;;;;5033361;28;20376;-65
2022/09/10 07:25:02;;;;;;;0.40;0.40;;;25.10;50.10;;;;;;5033260;28;20397;-64
2022/09/10 07:27:28;;;;;;;0.30;0.30;;;25.00;50.00;;;;;;5033151;28;20029;-64
2022/09/10 07:29:53;;;;;;;0.35;0.30;;;25.00;50.00;;;;;;5033178;28;20022;-64
2022/09/10 07:32:19;;;;;;;0.30;0.30;;;25.00;50.00;;;;;;5032745;28;20031;-64
2022/09/10 07:34:46;;;;;;;0.35;0.35;;;25.00;50.10;;;;;;5033223;28;20037;-64
2022/09/10 07:37:14;;;;;;;0.80;0.50;;;25.00;50.10;;;;;;5032966;28;20033;-64
2022/09/10 07:39:40;;;;;;;0.43;0.40;;;25.00;50.10;;;;;;5015242;28;20032;-64
2022/09/10 07:42:06;;;;;;;0.47;0.47;;;25.00;50.10;;;;;;5032871;28;20448;-64
2022/09/10 07:44:31;;;;;;;0.77;0.57;;;25.00;50.10;;;;;;5032887;28;20468;-64
2022/09/10 07:46:57;;;;;;;0.35;0.35;;;25.00;50.10;;;;;;5033174;28;20100;-64
2022/09/10 07:49:23;;;;;;;0.57;0.50;;;25.00;50.10;;;;;;5032938;28;20080;-64
2022/09/10 07:51:52;;;;;;;0.30;0.30;;;25.00;50.10;;;;;;5032778;28;20458;-63
2022/09/10 07:54:18;;;;;;;0.32;0.32;;;25.00;50.10;;;;;;5031927;28;20040;-64
2022/09/10 07:56:44;;;;;;;0.40;0.40;;;25.00;50.10;;;;;;5014965;28;20040;-64
2022/09/10 07:59:10;;;;;;;0.38;0.38;;;25.00;50.20;;;;;;5032458;28;20475;-64
2022/09/10 08:01:36;;;;;;;0.50;0.50;;;25.00;50.10;;;;;;5032232;28;20033;-63
2022/09/10 08:04:02;;;;;;;0.38;0.38;;;25.00;50.10;;;;;;5032552;28;20370;-64
2022/09/10 08:06:28;;;;;;;0.50;0.50;;;25.00;50.20;;;;;;5032544;28;20036;-64
2022/09/10 08:08:54;;;;;;;0.50;0.50;;;25.00;50.10;;;;;;5032547;28;20392;-64
2022/09/10 08:11:20;;;;;;;0.40;0.40;;;25.00;50.10;;;;;;5032497;28;20063;-64
2022/09/10 08:13:50;;;;;;;0.40;0.40;;;24.90;50.10;;;;;;5032355;28;20425;-64
2022/09/10 08:16:22;;;;;;;0.40;0.40;;;24.90;50.10;;;;;;5031490;28;20072;-64
2022/09/10 08:18:48;;;;;;;0.40;0.40;;;24.90;50.10;;;;;;5032111;28;20025;-64
2022/09/10 08:21:15;;;;;;;0.32;0.32;;;24.90;50.60;;;;;;5032124;28;20026;-64
2022/09/10 08:23:42;;;;;;;0.43;0.40;;;24.90;50.10;;;;;;5032109;28;20141;-64
2022/09/10 08:26:08;;;;;;;0.40;0.40;;;24.90;50.10;;;;;;5031929;28;20516;-64
2022/09/10 08:28:34;;;;;;;0.40;0.40;;;24.90;50.20;;;;;;5029478;28;20366;-64
2022/09/10 08:31:08;;;;;;;0.32;0.32;;;24.90;50.10;;;;;;5030448;28;20515;-64
2022/09/10 08:33:35;;;;;;;0.55;0.47;;;24.90;50.20;;;;;;5031643;28;20060;-64
2022/09/10 08:36:02;;;;;;;0.40;0.40;;;24.90;50.10;;;;;;5032078;28;20502;-64
2022/09/10 08:38:36;;;;;;;0.40;0.40;;;24.90;50.10;;;;;;5031968;28;20546;-64
2022/09/10 08:41:27;;;;;;;0.40;0.40;;;24.90;50.20;;;;;;5031705;28;20022;-64
2022/09/10 08:43:52;;;;;;;0.30;0.30;;;24.90;50.70;;;;;;5031503;28;20077;-64
2022/09/10 08:46:23;;;;;;;0.30;0.30;;;24.90;50.20;;;;;;5031718;28;20520;-64
2022/09/10 08:48:58;;;;;;;0.45;0.30;;;24.90;50.30;;;;;;5031119;28;20017;-64
2022/09/10 08:51:29;;;;;;;0.43;0.40;;;24.90;50.30;;;;;;5030479;28;20473;-64
2022/09/10 08:54:04;;;;;;;0.40;0.40;;;24.90;50.30;;;;;;5031440;28;20082;-64
2022/09/10 08:56:31;;;;;;;0.40;0.40;;;24.90;50.20;;;;;;5029636;28;20392;-64
2022/09/10 08:58:59;;;;;;;0.40;0.40;;;24.80;50.20;;;;;;5031758;28;20030;-64
2022/09/10 09:01:39;;;;;;;0.43;0.40;;;24.80;50.20;;;;;;5031066;28;20033;-65
2022/09/10 09:04:12;;;;;;;0.63;0.63;;;24.80;50.30;;;;;;5029606;28;20021;-64
2022/09/10 09:06:43;;;;;;;0.40;0.40;;;24.80;50.40;;;;;;5031453;28;20040;-64
2022/09/10 09:09:11;;;;;;;0.55;0.50;;;24.80;50.40;;;;;;5031500;28;20018;-65
2022/09/10 09:11:49;;;;;;;0.50;0.50;;;24.80;50.50;;;;;;5031399;28;20385;-64
2022/09/10 09:14:39;;;;;;;0.55;0.40;;;24.80;50.50;;;;;;5031212;28;20114;-64
2022/09/10 09:17:24;;;;;;;0.38;0.38;;;24.80;50.50;;;;;;5031279;28;20065;-64
2022/09/10 09:20:14;;;;;;;0.30;0.30;;;24.80;50.50;;;;;;5030459;28;20025;-64
2022/09/10 09:23:05;;;;;;;0.52;0.30;;;24.80;50.50;;;;;;5030382;28;20500;-65
2022/09/10 09:25:48;;;;;;;0.50;0.40;;;24.80;50.50;;;;;;5030562;28;20036;-65
2022/09/10 09:28:34;;;;;;;0.47;0.38;;;24.80;50.50;;;;;;5030293;28;20094;-65
2022/09/10 09:31:13;;;;;;;0.40;0.40;;;24.80;50.50;;;;;;5030771;28;20358;-64
2022/09/10 09:33:40;;;;;;;0.75;0.50;;;24.80;50.50;;;;;;5031081;28;20477;-64
2022/09/10 09:36:06;;;;;;;0.60;0.40;;;24.80;50.60;;;;;;5030978;28;20388;-64
2022/09/10 09:38:40;;;;;;;0.30;0.30;;;24.80;50.60;;;;;;5029371;28;20137;-64
2022/09/10 09:41:31;;;;;;;0.30;0.30;;;24.80;50.50;;;;;;5028884;28;20125;-64
2022/09/10 09:44:28;;;;;;;0.93;0.35;;;24.80;50.60;;;;;;5030274;28;20030;-64
2022/09/10 09:46:55;;;;;;;0.70;0.40;;;24.80;50.70;;;;;;5014830;28;20485;-64
2022/09/10 09:49:22;;;;;;;0.60;0.40;;;24.80;50.60;;;;;;5030810;28;20465;-64
2022/09/10 09:51:50;;;;;;;0.50;0.40;;;24.80;50.70;;;;;;5030943;28;20769;-64
2022/09/10 09:54:26;;;;;;;0.40;0.40;;;24.80;50.70;;;;;;5030790;28;20030;-65
2022/09/10 09:56:55;;;;;;;0.50;0.40;;;24.80;50.70;;;;;;5030522;28;20108;-64
2022/09/10 09:59:34;;;;;;;0.30;0.30;;;24.70;50.70;;;;;;5030733;28;20037;-64
2022/09/10 10:02:14;;;;;;;0.75;0.50;;;24.70;50.70;;;;;;5028301;28;20040;-64
2022/09/10 10:05:02;;;;;;;0.50;0.50;;;24.80;51.20;;;;;;5030669;28;20029;-64
2022/09/10 10:07:31;;;;;;;0.30;0.30;;;24.70;50.60;;;;;;5029697;28;20029;-64
2022/09/10 10:10:02;;;;;;;0.70;0.47;;;24.70;50.70;;;;;;5030177;28;20508;-64
2022/09/10 10:12:32;;;;;;;0.70;0.40;;;24.80;50.70;;;;;;5030622;28;20116;-64
2022/09/10 10:14:59;;;;;;;0.60;0.50;;;24.70;50.60;;;;;;5030396;28;20045;-64
2022/09/10 10:17:30;;;;;;;0.40;0.40;;;24.70;50.60;;;;;;5029420;28;20022;-64
2022/09/10 10:20:15;;;;;;;0.40;0.40;;;24.70;50.60;;;;;;5030472;28;20029;-64
2022/09/10 10:22:43;;;;;;;0.93;0.70;;;24.70;50.60;;;;;;5029890;28;20063;-64
2022/09/10 10:25:32;;;;;;;0.40;0.40;;;24.80;50.70;;;;;;5030354;28;20033;-64
2022/09/10 10:27:59;;;;;;;0.70;0.45;;;24.70;50.70;;;;;;5013923;28;20168;-64
2022/09/10 10:30:31;;;;;;;0.60;0.40;;;24.70;50.70;;;;;;5029979;28;20033;-64
2022/09/10 10:33:02;;;;;;;0.35;0.35;;;24.70;51.20;;;;;;5030017;28;20045;-64
2022/09/10 10:35:48;;;;;;;0.40;0.40;;;24.70;50.70;;;;;;5030315;28;20034;-64
2022/09/10 10:38:24;;;;;;;0.40;0.40;;;24.70;50.70;;;;;;5030572;28;20025;-64
2022/09/10 10:41:04;;;;;;;0.40;0.40;;;24.70;50.70;;;;;;5030411;28;20087;-64
2022/09/10 10:43:36;;;;;;;1.05;0.40;;;24.70;50.70;;;;;;5029746;28;20021;-64
2022/09/10 10:46:25;;;;;;;0.55;0.50;;;24.70;50.70;;;;;;5030314;28;20452;-65
2022/09/10 10:49:34;;;;;;;0.57;0.40;;;24.70;50.70;;;;;;5030172;28;20599;-65
2022/09/10 10:52:20;;;;;;;0.40;0.40;;;24.70;50.70;;;;;;4983291;28;20439;-64
2022/09/10 10:55:02;;;;;;;0.50;0.32;;;24.70;50.70;;;;;;5033689;28;20025;-64
2022/09/10 10:57:57;;;;;;;0.75;0.40;;;24.70;50.70;;;;;;5031804;28;20026;-65
2022/09/10 11:00:23;;;;;;;1.35;0.50;;;24.70;50.70;;;;;;5032449;28;20981;-64
2022/09/10 11:03:00;;;;;;;0.40;0.40;;;24.70;50.70;;;;;;5033586;28;20025;-64
2022/09/10 11:05:40;;;;;;;0.40;0.40;;;24.70;50.70;;;;;;5031794;28;20995;-64
2022/09/10 11:08:13;;;;;;;0.50;0.40;;;24.70;50.70;;;;;;5033483;28;20477;-65
2022/09/10 11:11:02;;;;;;;0.43;0.43;;;24.70;50.70;;;;;;5033617;28;20018;-64
2022/09/10 11:13:37;;;;;;;0.45;0.43;;;24.70;50.70;;;;;;4978333;28;20499;-64
2022/09/10 11:16:20;;;;;;;0.60;0.50;;;24.70;50.70;;;;;;5033564;28;20120;-64
2022/09/10 11:19:07;;;;;;;0.68;0.40;;;24.70;51.20;;;;;;5032505;28;20029;-64
2022/09/10 11:21:53;;;;;;;0.63;0.40;;;24.70;50.70;;;;;;5032459;28;20052;-66
2022/09/10 11:24:40;;;;;;;0.60;0.40;;;24.60;50.60;;;;;;5033222;28;20108;-65
2022/09/10 11:27:15;;;;;;;0.40;0.40;;;24.70;50.70;;;;;;5033136;28;20168;-64
2022/09/10 11:29:57;;;;;;;0.43;0.40;;;24.70;50.70;;;;;;5032369;28;20155;-64
2022/09/10 11:32:39;;;;;;;0.30;0.30;;;24.60;50.60;;;;;;5032828;28;20034;-64
2022/09/10 11:35:04;;;;;;;0.30;0.30;;;24.60;50.60;;;;;;5032694;28;20117;-64
2022/09/10 11:37:52;;;;;;;0.50;0.50;;;24.60;50.60;;;;;;5033162;28;20532;-64
2022/09/10 11:40:39;;;;;;;0.40;0.40;;;24.70;50.70;;;;;;5032455;28;20037;-65
2022/09/10 11:43:12;;;;;;;0.40;0.40;;;24.60;50.60;;;;;;5032305;28;20512;-65
2022/09/10 11:45:47;;;;;;;0.77;0.50;;;24.60;50.60;;;;;;5032171;28;20057;-65
2022/09/10 11:48:36;;;;;;;0.65;0.38;;;24.60;50.60;;;;;;5032937;28;20025;-64
2022/09/10 11:51:13;;;;;;;0.30;0.30;;;24.70;50.50;;;;;;5033009;28;20500;-64
2022/09/10 11:53:39;;;;;;;0.80;0.40;;;24.70;50.70;;;;;;5032849;28;20032;-64
2022/09/10 11:56:08;;;;;;;0.47;0.40;;;24.70;50.80;;;;;;5032881;28;20092;-65
2022/09/10 11:58:47;;;;;;;0.43;0.40;;;24.70;50.70;;;;;;5032826;28;20045;-64
2022/09/10 12:01:39;;;;;;;0.77;0.50;;;24.70;50.50;;;;;;5030929;28;20037;-65
2022/09/10 12:04:07;;;;;;;0.70;0.40;;;24.80;50.60;;;;;;5031071;28;20025;-65
2022/09/10 12:07:00;;;;;;;0.40;0.40;;;24.80;50.50;;;;;;5031768;28;20036;-64
2022/09/10 12:10:03;;;;;;;0.30;0.30;;;24.80;50.50;;;;;;5032279;28;20473;-64
2022/09/10 12:12:39;;;;;;;0.35;0.35;;;24.80;50.50;;;;;;5031825;28;20017;-65
2022/09/10 12:15:20;;;;;;;0.43;0.40;;;24.80;50.60;;;;;;5032133;28;20055;-65
2022/09/10 12:18:15;;;;;;;1.65;0.35;;;24.90;50.50;;;;;;5032000;28;20099;-65
2022/09/10 12:20:52;;;;;;;0.50;0.40;;;24.90;50.50;;;;;;5031992;28;20120;-66
2022/09/10 12:23:30;;;;;;;0.43;0.40;;;24.90;50.50;;;;;;5031612;28;20492;-66
2022/09/10 12:26:10;;;;;;;;;;;24.90;50.40;;;;;;5031861;28;20448;-67
2022/09/10 12:28:41;;;;;;;0.70;0.50;;;25.00;50.40;;;;;;5031994;28;19905;-67
2022/09/10 12:31:16;;;;;;;0.35;0.30;;;25.00;50.30;;;;;;5030593;28;20045;-67
2022/09/10 12:33:44;;;;;;;0.40;0.40;;;25.00;50.30;;;;;;5033263;28;20029;-67
2022/09/10 12:36:15;;;;;;;0.50;0.50;;;25.10;50.30;;;;;;5032154;28;20037;-67
2022/09/10 12:39:12;;;;;;;1.00;0.45;;;25.10;50.30;;;;;;5032064;28;20043;-67
2022/09/10 12:41:37;;;;;;;0.40;0.40;;;25.10;50.20;;;;;;5032172;28;20508;-64
2022/09/10 12:44:26;;;;;;;0.60;0.57;;;25.10;50.10;;;;;;5034746;28;20104;-66
2022/09/10 12:47:16;;;;;;;1.90;0.50;;;25.20;50.20;;;;;;5030068;28;20025;-65
2022/09/10 12:49:57;;;;;;;0.40;0.40;;;25.10;50.10;;;;;;5029852;28;20110;-66
2022/09/10 12:52:44;;;;;;;1.05;0.50;;;25.20;50.20;;;;;;5013696;28;20021;-66
2022/09/10 12:55:35;;;;;;;0.60;0.40;;;25.20;50.20;;;;;;5031398;28;20091;-67
2022/09/10 12:58:21;;;;;;;0.65;0.50;;;25.20;50.10;;;;;;5031626;28;20049;-66
2022/09/10 13:00:53;;;;;;;0.70;0.50;;;25.30;50.10;;;;;;5031407;28;20439;-66
2022/09/10 13:03:20;;;;;;;1.00;0.52;;;25.20;50.00;;;;;;5031508;28;20054;-66
2022/09/10 13:05:46;;;;;;;0.75;0.50;;;25.30;49.90;;;;;;5031491;28;20175;-66
2022/09/10 13:08:14;;;;;;;1.13;0.50;;;25.30;50.00;;;;;;5031314;28;20025;-66